createdAt,value
2023-03-15T00:00:24.608Z,56.10
2023-03-15T00:02:53.392Z,56.75
2023-03-15T00:05:22.679Z,53.78
2023-03-15T00:07:51.306Z,55.60
2023-03-15T00:10:19.964Z,53.03
2023-03-15T00:12:48.620Z,55.38
2023-03-15T00:15:17.302Z,55.38
2023-03-15T00:17:45.971Z,55.40
2023-03-15T00:20:15.997Z,55.92
2023-03-15T00:22:44.734Z,54.40
2023-03-15T00:25:13.540Z,56.60
2023-03-15T00:27:42.288Z,61.25
2023-03-15T00:30:11.814Z,67.78
2023-03-15T00:32:40.568Z,77.50
2023-03-15T00:35:12.129Z,94.68
2023-03-15T00:37:41.440Z,122.93
2023-03-15T00:40:11.096Z,102.20
2023-03-15T00:42:40.715Z,95.55
2023-03-15T00:45:09.954Z,91.82
2023-03-15T00:47:38.729Z,85.90
2023-03-15T00:50:07.662Z,76.88
2023-03-15T00:52:40.914Z,77.20
2023-03-15T00:55:14.940Z,70.57
2023-03-15T00:57:45.678Z,71.18
2023-03-15T01:00:25.216Z,78.88
2023-03-15T01:02:54.972Z,78.93
2023-03-15T01:05:23.899Z,81.13
2023-03-15T01:07:54.090Z,80.40
2023-03-15T01:10:22.763Z,82.78
2023-03-15T01:12:51.922Z,77.63
2023-03-15T01:15:20.716Z,77.85
2023-03-15T01:17:49.454Z,73.75
2023-03-15T01:20:18.306Z,74.20
2023-03-15T01:22:47.052Z,66.43
2023-03-15T01:25:18.889Z,65.50
2023-03-15T01:27:47.703Z,61.20
2023-03-15T01:30:16.514Z,61.85
2023-03-15T01:32:45.262Z,59.33
2023-03-15T01:35:14.148Z,67.40
2023-03-15T01:37:42.877Z,71.15
2023-03-15T01:40:15.054Z,70.72
2023-03-15T01:43:07.218Z,67.90
2023-03-15T01:46:15.277Z,67.32
2023-03-15T01:48:49.947Z,81.93
2023-03-15T01:51:19.507Z,71.22
2023-03-15T01:53:54.889Z,69.80
2023-03-15T01:56:24.869Z,75.22
2023-03-15T01:58:55.050Z,61.80
2023-03-15T02:01:23.989Z,57.85
2023-03-15T02:03:58.668Z,65.38
2023-03-15T02:06:27.932Z,65.75
2023-03-15T02:09:05.053Z,63.00
2023-03-15T02:11:36.054Z,60.88
2023-03-15T02:14:06.424Z,55.45
2023-03-15T02:16:35.788Z,55.83
2023-03-15T02:19:05.880Z,58.13
2023-03-15T02:22:08.659Z,56.22
2023-03-15T02:24:57.302Z,55.63
2023-03-15T02:27:35.494Z,51.78
2023-03-15T02:30:06.575Z,53.67
2023-03-15T02:32:36.241Z,50.83
2023-03-15T02:35:05.350Z,51.33
2023-03-15T02:37:34.182Z,51.72
2023-03-15T02:40:03.042Z,49.63
2023-03-15T02:42:32.450Z,48.83
2023-03-15T02:45:01.446Z,47.97
2023-03-15T02:47:34.787Z,46.40
2023-03-15T02:50:03.579Z,45.03
2023-03-15T02:52:32.234Z,47.72
2023-03-15T02:55:00.889Z,45.22
2023-03-15T02:57:33.188Z,43.80
2023-03-15T03:00:07.980Z,45.08
2023-03-15T03:02:36.818Z,44.47
2023-03-15T03:05:07.074Z,42.85
2023-03-15T03:07:36.645Z,42.25
2023-03-15T03:10:07.311Z,42.13
2023-03-15T03:12:36.235Z,42.70
2023-03-15T03:15:23.769Z,40.88
2023-03-15T03:17:52.472Z,39.63
2023-03-15T03:20:21.235Z,40.25
2023-03-15T03:22:50.542Z,38.00
2023-03-15T03:25:22.304Z,39.97
2023-03-15T03:27:51.639Z,37.42
2023-03-15T03:30:20.356Z,27.50
2023-03-15T03:32:49.033Z,29.73
2023-03-15T03:35:17.984Z,29.13
2023-03-15T03:37:46.985Z,30.42
2023-03-15T03:40:15.777Z,29.60
2023-03-15T03:42:44.755Z,27.67
2023-03-15T03:45:13.839Z,27.20
2023-03-15T03:47:42.818Z,27.88
2023-03-15T03:50:15.609Z,28.30
2023-03-15T03:55:15.097Z,29.25
2023-03-15T03:57:45.016Z,27.60
2023-03-15T04:00:15.881Z,26.48
2023-03-15T04:02:44.809Z,22.52
2023-03-15T04:05:14.258Z,24.80
2023-03-15T04:07:43.005Z,27.38
2023-03-15T04:10:15.731Z,26.77
2023-03-15T04:15:13.918Z,22.50
2023-03-15T04:17:42.649Z,24.35
2023-03-15T04:20:13.825Z,24.95
2023-03-15T04:22:42.537Z,25.38
2023-03-15T04:25:11.384Z,25.73
2023-03-15T04:27:40.105Z,20.33
2023-03-15T04:30:09.570Z,19.75
2023-03-15T04:32:38.474Z,26.92
2023-03-15T04:35:07.508Z,24.50
2023-03-15T04:37:36.220Z,19.63
2023-03-15T04:40:06.028Z,20.73
2023-03-15T04:42:35.288Z,20.27
2023-03-15T04:45:05.244Z,19.40
2023-03-15T04:47:33.981Z,19.88
2023-03-15T04:50:02.718Z,23.25
2023-03-15T04:52:31.566Z,20.52
2023-03-15T04:55:00.285Z,21.15
2023-03-15T04:57:29.003Z,19.30
2023-03-15T04:59:58.303Z,21.15
2023-03-15T05:02:27.114Z,22.77
2023-03-15T05:04:57.951Z,23.92
2023-03-15T05:07:26.984Z,23.80
2023-03-15T05:09:55.774Z,24.83
2023-03-15T05:12:25.474Z,26.80
2023-03-15T05:14:54.434Z,27.55
2023-03-15T05:17:23.563Z,26.13
2023-03-15T05:19:52.855Z,26.88
2023-03-15T05:22:26.845Z,28.15
2023-03-15T05:24:55.554Z,27.85
2023-03-15T05:27:24.972Z,28.65
2023-03-15T05:29:53.744Z,24.83
2023-03-15T05:32:28.052Z,26.02
2023-03-15T05:34:56.896Z,27.42
2023-03-15T05:37:26.076Z,27.60
2023-03-15T05:39:55.166Z,27.65
2023-03-15T05:42:27.121Z,26.63
2023-03-15T05:44:56.906Z,29.80
2023-03-15T05:47:25.747Z,27.08
2023-03-15T05:49:54.747Z,27.13
2023-03-15T05:52:23.617Z,24.35
2023-03-15T05:54:52.310Z,25.17
2023-03-15T05:57:21.240Z,24.75
2023-03-15T05:59:50.350Z,24.73
2023-03-15T06:02:19.172Z,24.75
2023-03-15T06:04:48.699Z,24.60
2023-03-15T06:07:18.294Z,25.25
2023-03-15T06:09:47.262Z,26.40
2023-03-15T06:12:16.650Z,25.48
2023-03-15T06:14:45.373Z,25.55
2023-03-15T06:17:14.503Z,25.42
2023-03-15T06:19:43.358Z,25.95
2023-03-15T06:22:12.267Z,25.38
2023-03-15T06:24:41.237Z,24.20
2023-03-15T06:27:10.396Z,25.38
2023-03-15T06:29:39.167Z,25.67
2023-03-15T06:32:08.124Z,24.10
2023-03-15T06:34:36.984Z,25.13
2023-03-15T06:37:05.895Z,22.70
2023-03-15T06:39:35.442Z,24.15
2023-03-15T06:42:05.996Z,23.85
2023-03-15T06:44:35.272Z,23.88
2023-03-15T06:47:04.033Z,23.38
2023-03-15T06:49:33.794Z,23.90
2023-03-15T06:52:02.570Z,23.45
2023-03-15T06:54:31.754Z,23.13
2023-03-15T06:57:00.916Z,23.17
2023-03-15T06:59:29.934Z,21.67
2023-03-15T07:02:04.740Z,22.77
2023-03-15T07:04:33.591Z,23.02
2023-03-15T07:07:02.444Z,23.33
2023-03-15T07:09:31.116Z,22.85
2023-03-15T07:11:59.923Z,22.02
2023-03-15T07:14:28.608Z,23.45
2023-03-15T07:16:57.314Z,24.00
2023-03-15T07:19:26.043Z,23.15
2023-03-15T07:21:54.700Z,22.33
2023-03-15T07:24:23.568Z,23.42
2023-03-15T07:26:57.240Z,22.88
2023-03-15T07:29:28.778Z,23.23
2023-03-15T07:31:57.503Z,22.77
2023-03-15T07:34:29.160Z,23.05
2023-03-15T07:36:58.046Z,23.80
2023-03-15T07:39:27.897Z,23.98
2023-03-15T07:41:56.994Z,24.17
2023-03-15T07:44:25.788Z,23.33
2023-03-15T07:46:56.014Z,23.88
2023-03-15T07:49:24.899Z,24.10
2023-03-15T07:51:53.690Z,24.35
2023-03-15T07:54:22.459Z,22.95
2023-03-15T07:56:51.214Z,23.10
2023-03-15T07:59:19.897Z,23.45
2023-03-15T08:01:49.368Z,24.10
2023-03-15T08:04:18.131Z,22.90
2023-03-15T08:06:46.886Z,26.70
2023-03-15T08:09:15.643Z,23.88
2023-03-15T08:11:45.323Z,24.08
2023-03-15T08:14:14.539Z,23.17
2023-03-15T08:16:43.262Z,24.33
2023-03-15T08:19:12.168Z,22.90
2023-03-15T08:21:46.238Z,24.52
2023-03-15T08:24:15.257Z,24.52
2023-03-15T08:26:44.618Z,23.98
2023-03-15T08:29:13.402Z,25.05
2023-03-15T08:31:42.827Z,24.70
2023-03-15T08:34:13.172Z,24.58
2023-03-15T08:36:42.941Z,24.15
2023-03-15T08:39:12.522Z,23.10
2023-03-15T08:41:41.929Z,23.98
2023-03-15T08:44:11.098Z,24.88
2023-03-15T08:46:39.904Z,27.02
2023-03-15T08:52:09.113Z,23.98
2023-03-15T08:54:37.943Z,24.90
2023-03-15T08:57:29.742Z,25.27
2023-03-15T09:00:11.543Z,26.27
2023-03-15T09:02:49.508Z,26.80
2023-03-15T09:05:22.697Z,25.60
2023-03-15T09:07:54.885Z,24.80
2023-03-15T09:10:27.284Z,24.75
2023-03-15T09:12:56.693Z,25.95
2023-03-15T09:15:31.669Z,25.90
2023-03-15T09:18:00.473Z,27.77
2023-03-15T09:20:29.628Z,27.08
2023-03-15T09:22:59.749Z,27.00
2023-03-15T09:25:28.755Z,26.40
2023-03-15T09:27:57.491Z,25.35
2023-03-15T09:30:26.442Z,27.25
2023-03-15T09:32:55.272Z,27.58
2023-03-15T09:35:24.438Z,27.38
2023-03-15T09:37:53.399Z,25.67
2023-03-15T09:40:29.560Z,28.55
2023-03-15T09:42:59.264Z,26.25
2023-03-15T09:45:33.448Z,28.10
2023-03-15T09:48:06.551Z,26.02
2023-03-15T09:50:58.394Z,27.27
2023-03-15T09:53:31.256Z,27.00
2023-03-15T09:56:00.863Z,26.55
2023-03-15T09:58:35.923Z,27.05
2023-03-15T10:01:14.127Z,26.48
2023-03-15T10:03:55.015Z,26.10
2023-03-15T10:06:30.596Z,25.42
2023-03-15T10:09:01.695Z,24.67
2023-03-15T10:11:58.409Z,26.42
2023-03-15T10:14:29.183Z,25.20
2023-03-15T10:16:58.009Z,26.92
2023-03-15T10:19:45.569Z,27.60
2023-03-15T10:22:16.152Z,26.15
2023-03-15T10:25:02.368Z,27.17
2023-03-15T10:27:50.795Z,27.85
2023-03-15T10:30:22.446Z,28.27
2023-03-15T10:33:14.581Z,28.17
2023-03-15T10:35:43.856Z,30.13
2023-03-15T10:38:17.556Z,29.10
2023-03-15T10:40:50.113Z,29.33
2023-03-15T10:43:38.238Z,30.80
2023-03-15T10:46:08.053Z,30.85
2023-03-15T10:48:39.195Z,30.23
2023-03-15T10:51:30.230Z,31.38
2023-03-15T10:54:09.702Z,31.25
2023-03-15T10:56:47.962Z,31.35
2023-03-15T10:59:21.479Z,31.58
2023-03-15T11:01:53.201Z,29.63
2023-03-15T11:04:24.513Z,31.52
2023-03-15T11:07:10.289Z,32.28
2023-03-15T11:09:46.612Z,30.42
2023-03-15T11:12:25.209Z,32.78
2023-03-15T11:14:59.292Z,31.02
2023-03-15T11:17:33.808Z,33.45
2023-03-15T11:20:14.498Z,30.65
2023-03-15T11:22:43.435Z,29.67
2023-03-15T11:25:19.697Z,30.48
2023-03-15T11:27:54.524Z,32.08
2023-03-15T11:30:29.858Z,29.60
2023-03-15T11:33:06.959Z,30.73
2023-03-15T11:35:42.087Z,32.00
2023-03-15T11:38:16.004Z,33.70
2023-03-15T11:40:49.060Z,34.85
2023-03-15T11:43:43.600Z,33.88
2023-03-15T11:46:23.357Z,37.15
2023-03-15T11:48:59.174Z,36.33
2023-03-15T11:51:28.479Z,35.17
2023-03-15T11:54:18.257Z,36.10
2023-03-15T11:56:49.315Z,37.30
2023-03-15T11:59:19.037Z,38.20
2023-03-15T12:01:51.179Z,38.50
2023-03-15T12:04:28.317Z,36.83
2023-03-15T12:06:58.768Z,37.88
2023-03-15T12:09:37.351Z,40.50
2023-03-15T12:12:26.175Z,39.90
2023-03-15T12:15:16.082Z,44.47
2023-03-15T12:17:46.545Z,48.92
2023-03-15T12:20:22.841Z,51.55
2023-03-15T12:23:08.834Z,49.38
2023-03-15T12:25:54.698Z,46.13
2023-03-15T12:28:31.444Z,42.75
2023-03-15T12:31:03.188Z,42.17
2023-03-15T12:33:34.172Z,42.85
2023-03-15T12:36:09.569Z,40.35
2023-03-15T12:38:42.782Z,41.10
2023-03-15T12:41:40.210Z,38.05
2023-03-15T12:44:39.349Z,38.05
2023-03-15T12:47:10.290Z,38.70
2023-03-15T12:49:43.670Z,37.33
2023-03-15T12:52:15.265Z,38.05
2023-03-15T12:55:19.546Z,38.13
2023-03-15T12:57:55.071Z,34.60
2023-03-15T13:00:26.921Z,37.08
2023-03-15T13:03:06.487Z,34.50
2023-03-15T13:06:14.562Z,35.47
2023-03-15T13:09:05.486Z,35.85
2023-03-15T13:11:55.238Z,35.83
2023-03-15T13:14:34.201Z,34.47
2023-03-15T13:17:18.422Z,35.47
2023-03-15T13:19:51.000Z,36.58
2023-03-15T13:22:37.413Z,35.40
2023-03-15T13:25:22.491Z,35.08
2023-03-15T13:27:52.146Z,35.70
2023-03-15T13:30:39.007Z,35.85
2023-03-15T13:33:12.110Z,36.13
2023-03-15T13:35:51.258Z,35.97
2023-03-15T13:38:27.900Z,35.25
2023-03-15T13:40:58.529Z,35.22
2023-03-15T13:43:31.844Z,36.92
2023-03-15T13:46:01.858Z,36.17
2023-03-15T13:48:32.772Z,35.97
2023-03-15T13:51:09.031Z,37.10
2023-03-15T13:53:49.526Z,36.97
2023-03-15T13:56:29.468Z,35.92
2023-03-15T13:58:59.622Z,36.45
2023-03-15T14:01:28.689Z,35.88
2023-03-15T14:04:04.205Z,36.17
2023-03-15T14:06:33.876Z,34.13
2023-03-15T14:09:13.137Z,37.38
2023-03-15T14:11:42.222Z,36.38
2023-03-15T14:14:25.797Z,37.70
2023-03-15T14:17:04.713Z,37.83
2023-03-15T14:19:37.846Z,37.00
2023-03-15T14:22:16.803Z,36.92
2023-03-15T14:24:48.515Z,36.42
2023-03-15T14:27:23.379Z,36.85
2023-03-15T14:30:02.694Z,36.53
2023-03-15T14:32:34.529Z,36.92
2023-03-15T14:35:08.954Z,39.85
2023-03-15T14:37:41.720Z,38.65
2023-03-15T14:42:46.009Z,38.33
2023-03-15T14:45:16.063Z,40.45
2023-03-15T14:47:56.769Z,39.47
2023-03-15T14:50:28.833Z,38.50
2023-03-15T14:53:00.005Z,40.03
2023-03-15T14:55:34.483Z,39.58
2023-03-15T14:58:04.984Z,39.58
2023-03-15T15:00:35.469Z,41.70
2023-03-15T15:03:04.834Z,41.58
2023-03-15T15:05:39.045Z,42.53
2023-03-15T15:08:15.199Z,41.72
2023-03-15T15:10:48.146Z,42.00
2023-03-15T15:13:19.795Z,41.67
2023-03-15T15:15:55.579Z,41.75
2023-03-15T15:18:26.908Z,42.17
2023-03-15T15:20:58.408Z,41.40
2023-03-15T15:23:32.559Z,40.85
2023-03-15T15:26:06.228Z,39.97
2023-03-15T15:28:37.395Z,41.03
2023-03-15T15:31:08.287Z,41.55
2023-03-15T15:33:37.341Z,40.03
2023-03-15T15:36:11.630Z,40.40
2023-03-15T15:38:41.218Z,38.90
2023-03-15T15:41:17.165Z,41.58
2023-03-15T15:43:46.056Z,41.22
2023-03-15T15:46:14.975Z,41.05
2023-03-15T15:48:43.803Z,40.42
2023-03-15T15:51:33.349Z,40.33
2023-03-15T15:54:03.290Z,41.47
2023-03-15T15:56:38.113Z,43.35
2023-03-15T15:59:09.685Z,41.60
2023-03-15T16:01:56.782Z,42.03
2023-03-15T16:04:28.646Z,42.88
2023-03-15T16:07:02.649Z,42.15
2023-03-15T16:09:36.193Z,42.05
2023-03-15T16:12:12.278Z,41.83
2023-03-15T16:14:41.246Z,41.00
2023-03-15T16:17:17.748Z,42.35
2023-03-15T16:19:46.664Z,41.28
2023-03-15T16:22:15.828Z,41.88
2023-03-15T16:24:46.463Z,40.83
2023-03-15T16:27:17.125Z,41.15
2023-03-15T16:29:49.157Z,41.47
2023-03-15T16:32:32.884Z,41.83
2023-03-15T16:35:07.799Z,38.95
2023-03-15T16:37:36.927Z,39.72
2023-03-15T16:40:11.653Z,39.00
2023-03-15T16:42:40.351Z,39.28
2023-03-15T16:45:15.230Z,39.75
2023-03-15T16:47:44.023Z,41.58
2023-03-15T16:50:13.176Z,40.22
2023-03-15T16:52:43.870Z,42.20
2023-03-15T16:55:18.002Z,41.10
2023-03-15T16:57:46.913Z,41.50
2023-03-15T17:03:43.874Z,39.60
2023-03-15T17:06:21.052Z,38.50
2023-03-15T17:08:50.421Z,38.15
2023-03-15T17:11:20.032Z,41.38
2023-03-15T17:13:48.761Z,41.90
2023-03-15T17:16:17.736Z,41.33
2023-03-15T17:18:48.592Z,40.92
2023-03-15T17:21:21.029Z,40.97
2023-03-15T17:23:51.250Z,40.90
2023-03-15T17:26:23.429Z,40.97
2023-03-15T17:28:52.402Z,40.40
2023-03-15T17:31:26.657Z,41.53
2023-03-15T17:33:55.545Z,41.53
2023-03-15T17:36:26.538Z,40.75
2023-03-15T17:38:55.889Z,41.33
2023-03-15T17:41:35.068Z,40.55
2023-03-15T17:44:03.910Z,40.92
2023-03-15T17:46:34.109Z,42.58
2023-03-15T17:49:03.904Z,42.65
2023-03-15T17:51:35.280Z,41.13
2023-03-15T17:54:12.002Z,41.08
2023-03-15T17:56:40.705Z,43.53
2023-03-15T17:59:13.449Z,42.92
2023-03-15T18:01:46.632Z,44.47
2023-03-15T18:04:16.100Z,42.60
2023-03-15T18:06:45.001Z,43.33
2023-03-15T18:09:16.293Z,43.75
2023-03-15T18:11:47.033Z,45.53
2023-03-15T18:14:17.378Z,44.60
2023-03-15T18:16:46.938Z,44.22
2023-03-15T18:19:15.773Z,44.35
2023-03-15T18:34:16.657Z,47.67
2023-03-15T18:36:45.352Z,48.20
2023-03-15T18:39:14.117Z,46.22
2023-03-15T18:41:42.863Z,45.30
2023-03-15T18:44:12.384Z,45.40
2023-03-15T18:46:41.151Z,47.05
2023-03-15T18:49:09.951Z,48.75
2023-03-15T18:51:38.686Z,54.05
2023-03-15T18:54:07.399Z,57.03
2023-03-15T18:56:36.752Z,50.67
2023-03-15T18:59:05.936Z,51.55
2023-03-15T19:01:35.269Z,49.70
2023-03-15T19:04:04.587Z,53.85
2023-03-15T19:06:33.297Z,53.58
2023-03-15T19:09:02.106Z,53.67
2023-03-15T19:11:32.590Z,52.95
2023-03-15T19:14:01.470Z,54.58
2023-03-15T19:16:31.786Z,53.60
2023-03-15T19:19:00.518Z,53.05
2023-03-15T19:21:29.156Z,54.17
2023-03-15T19:23:58.337Z,53.35
2023-03-15T19:26:27.444Z,52.80
2023-03-15T19:28:57.270Z,51.50
2023-03-15T19:31:25.991Z,53.20
2023-03-15T19:33:54.695Z,53.35
2023-03-15T19:36:23.823Z,51.40
2023-03-15T19:38:52.706Z,52.97
2023-03-15T19:41:21.401Z,51.03
2023-03-15T19:43:50.237Z,51.03
2023-03-15T19:46:19.054Z,52.65
2023-03-15T19:48:47.866Z,49.42
2023-03-15T19:51:17.454Z,52.25
2023-03-15T19:53:46.197Z,51.08
2023-03-15T19:56:15.021Z,52.13
2023-03-15T19:58:43.709Z,52.75
2023-03-15T20:01:12.517Z,51.88
2023-03-15T20:03:41.246Z,52.00
2023-03-15T20:06:13.413Z,52.72
2023-03-15T20:08:43.166Z,54.15
2023-03-15T20:11:15.887Z,52.55
2023-03-15T20:13:44.900Z,52.47
2023-03-15T20:16:13.926Z,55.78
2023-03-15T20:18:42.710Z,54.70
2023-03-15T20:21:11.982Z,53.42
2023-03-15T20:23:40.647Z,53.55
2023-03-15T20:26:12.471Z,52.00
2023-03-15T20:28:42.694Z,51.45
2023-03-15T20:31:15.010Z,51.78
2023-03-15T20:33:44.843Z,52.85
2023-03-15T20:36:13.582Z,51.05
2023-03-15T20:38:42.237Z,51.45
2023-03-15T20:41:11.018Z,50.55
2023-03-15T20:43:39.631Z,52.83
2023-03-15T20:46:10.674Z,52.00
2023-03-15T20:48:39.357Z,52.92
2023-03-15T20:51:08.144Z,53.20
2023-03-15T20:53:37.657Z,52.70
2023-03-15T20:56:07.627Z,54.25
2023-03-15T20:58:36.277Z,52.05
2023-03-15T21:01:08.322Z,53.25
2023-03-15T21:03:38.042Z,51.97
2023-03-15T21:06:07.695Z,51.47
2023-03-15T21:08:37.149Z,53.80
2023-03-15T21:11:07.550Z,53.03
2023-03-15T21:13:36.831Z,56.40
2023-03-15T21:16:06.027Z,56.38
2023-03-15T21:18:36.966Z,54.95
2023-03-15T21:21:08.369Z,55.22
2023-03-15T21:23:37.719Z,53.53
2023-03-15T21:26:08.590Z,56.22
2023-03-15T21:28:37.521Z,54.65
2023-03-15T21:31:07.478Z,56.28
2023-03-15T21:33:36.662Z,57.22
2023-03-15T21:36:06.178Z,56.45
2023-03-15T21:38:35.844Z,53.92
2023-03-15T21:41:09.990Z,56.10
2023-03-15T21:43:39.284Z,57.17
2023-03-15T21:46:12.723Z,54.65
2023-03-15T21:48:42.985Z,58.00
2023-03-15T21:51:14.914Z,56.00
2023-03-15T21:53:44.622Z,60.77
2023-03-15T21:56:15.102Z,59.78
2023-03-15T21:58:43.855Z,57.28
2023-03-15T22:01:15.698Z,61.55
2023-03-15T22:03:45.228Z,59.17
2023-03-15T22:06:14.017Z,59.35
2023-03-15T22:08:43.433Z,62.38
2023-03-15T22:11:12.169Z,61.83
2023-03-15T22:13:42.644Z,59.80
2023-03-15T22:16:12.715Z,59.15
2023-03-15T22:18:41.832Z,58.47
2023-03-15T22:21:10.561Z,58.25
2023-03-15T22:23:39.268Z,56.75
2023-03-15T22:26:08.193Z,58.05
2023-03-15T22:28:36.843Z,56.80
2023-03-15T22:31:05.604Z,58.67
2023-03-15T22:33:34.232Z,56.05
2023-03-15T22:36:04.224Z,56.65
2023-03-15T22:38:38.768Z,56.45
2023-03-15T22:41:11.210Z,57.70
2023-03-15T22:43:40.714Z,59.13
2023-03-15T22:46:09.670Z,59.40
2023-03-15T22:48:38.828Z,58.50
2023-03-15T22:51:10.964Z,58.38
2023-03-15T22:53:39.668Z,58.55
2023-03-15T22:56:09.219Z,59.30
2023-03-15T22:58:38.868Z,56.83
2023-03-15T23:01:07.804Z,57.67
2023-03-15T23:03:36.642Z,62.17
2023-03-15T23:06:06.675Z,59.78
2023-03-15T23:08:35.316Z,60.33
2023-03-15T23:11:04.862Z,60.67
2023-03-15T23:13:33.496Z,61.17
2023-03-15T23:16:05.166Z,61.95
2023-03-15T23:18:35.123Z,64.03
2023-03-15T23:21:09.190Z,64.18
2023-03-15T23:23:39.687Z,60.58
2023-03-15T23:26:08.817Z,62.83
2023-03-15T23:28:37.717Z,62.70
2023-03-15T23:31:08.225Z,64.10
2023-03-15T23:33:37.493Z,65.03
2023-03-15T23:36:08.088Z,60.17
2023-03-15T23:38:36.767Z,61.97
2023-03-15T23:41:05.960Z,61.28
2023-03-15T23:43:35.097Z,61.20
2023-03-15T23:46:05.765Z,64.20
2023-03-15T23:48:38.106Z,59.47
2023-03-15T23:51:06.943Z,66.47
2023-03-15T23:53:36.167Z,61.45
2023-03-15T23:56:04.937Z,64.68
2023-03-15T23:58:33.630Z,68.72
